createdAt,value
2022-08-09T00:02:30.973Z,25.32
2022-08-09T00:07:44.498Z,25.23
2022-08-09T00:12:52.542Z,25.24
2022-08-09T00:18:09.300Z,25.19
2022-08-09T00:23:55.605Z,25.21
2022-08-09T00:28:38.604Z,25.19
2022-08-09T00:33:50.836Z,25.13
2022-08-09T00:38:54.537Z,24.62
2022-08-09T00:44:16.063Z,24.90
2022-08-09T00:49:21.441Z,24.63
2022-08-09T00:54:35.006Z,24.43
2022-08-09T00:59:41.082Z,24.62
2022-08-09T01:04:53.607Z,24.71
2022-08-09T01:09:59.823Z,24.73
2022-08-09T01:15:05.995Z,24.72
2022-08-09T01:20:15.368Z,24.43
2022-08-09T01:25:26.440Z,24.22
2022-08-09T01:30:35.428Z,24.28
2022-08-09T01:35:57.834Z,24.20
2022-08-09T01:41:05.653Z,24.22
2022-08-09T01:46:10.615Z,24.27
2022-08-09T01:51:22.579Z,24.24
2022-08-09T01:56:26.626Z,24.19
2022-08-09T02:02:00.184Z,24.15
2022-08-09T02:07:15.386Z,24.10
2022-08-09T02:12:32.845Z,23.97
2022-08-09T02:18:01.303Z,23.89
2022-08-09T02:23:02.527Z,23.95
2022-08-09T02:28:09.734Z,23.87
2022-08-09T02:33:17.036Z,23.85
2022-08-09T02:38:28.564Z,23.61
2022-08-09T02:43:47.733Z,23.58
2022-08-09T02:48:57.897Z,23.61
2022-08-09T02:54:01.638Z,23.53
2022-08-09T02:59:06.092Z,23.24
2022-08-09T03:04:17.390Z,23.44
2022-08-09T03:09:22.488Z,23.45
2022-08-09T03:14:28.364Z,23.51
2022-08-09T03:19:57.652Z,23.61
2022-08-09T03:25:06.199Z,23.51
2022-08-09T03:30:29.364Z,23.34
2022-08-09T03:35:44.436Z,23.26
2022-08-09T03:40:59.694Z,23.14
2022-08-09T03:46:13.592Z,22.75
2022-08-09T03:51:57.122Z,22.46
2022-08-09T03:56:47.245Z,22.58
2022-08-09T04:01:55.600Z,22.58
2022-08-09T04:06:59.626Z,22.28
2022-08-09T04:12:12.083Z,22.13
2022-08-09T04:17:14.967Z,22.05
2022-08-09T04:22:19.800Z,21.83
2022-08-09T04:27:24.302Z,21.80
2022-08-09T04:32:33.649Z,21.63
2022-08-09T04:37:45.102Z,20.86
2022-08-09T04:42:49.006Z,21.08
2022-08-09T04:48:01.132Z,21.37
2022-08-09T04:53:11.501Z,21.74
2022-08-09T04:58:16.571Z,21.63
2022-08-09T05:03:40.820Z,21.57
2022-08-09T05:08:44.019Z,22.15
2022-08-09T05:13:50.890Z,22.30
2022-08-09T05:18:59.978Z,22.02
2022-08-09T05:24:06.699Z,22.10
2022-08-09T05:29:17.397Z,22.12
2022-08-09T05:34:20.647Z,21.53
2022-08-09T05:39:28.999Z,21.64
2022-08-09T05:44:34.592Z,21.82
2022-08-09T05:50:23.280Z,21.81
2022-08-09T05:55:03.219Z,21.45
2022-08-09T06:00:11.292Z,21.89
2022-08-09T06:05:16.884Z,22.02
2022-08-09T06:10:21.109Z,21.51
2022-08-09T06:15:25.065Z,21.57
2022-08-09T06:20:30.268Z,21.29
2022-08-09T06:25:34.591Z,21.42
2022-08-09T06:30:37.904Z,21.41
2022-08-09T06:35:56.888Z,21.56
2022-08-09T06:41:01.988Z,21.31
2022-08-09T06:46:11.112Z,21.47
2022-08-09T06:51:29.351Z,21.45
2022-08-09T06:56:35.023Z,21.82
2022-08-09T07:01:57.973Z,22.22
2022-08-09T07:07:05.011Z,22.08
2022-08-09T07:12:17.494Z,22.70
2022-08-09T07:17:21.453Z,22.10
2022-08-09T07:22:34.281Z,22.72
2022-08-09T07:27:42.606Z,22.71
2022-08-09T07:32:55.824Z,22.75
2022-08-09T07:37:59.507Z,22.70
2022-08-09T07:43:04.153Z,22.73
2022-08-09T07:48:29.496Z,22.81
2022-08-09T07:53:36.564Z,22.86
2022-08-09T07:58:59.802Z,22.93
2022-08-09T08:04:02.678Z,22.97
2022-08-09T08:09:18.182Z,23.03
2022-08-09T08:14:29.594Z,23.09
2022-08-09T08:19:33.044Z,23.18
2022-08-09T08:24:40.562Z,23.19
2022-08-09T08:29:49.942Z,23.24
2022-08-09T08:34:55.433Z,23.27
2022-08-09T08:40:01.913Z,23.31
2022-08-09T08:45:13.355Z,23.36
2022-08-09T08:50:18.164Z,23.41
2022-08-09T08:55:23.327Z,23.43
2022-08-09T09:00:30.396Z,23.59
2022-08-09T09:06:00.835Z,23.69
2022-08-09T09:11:02.489Z,23.78
2022-08-09T09:16:07.424Z,23.78
2022-08-09T09:21:10.772Z,23.85
2022-08-09T09:26:13.655Z,23.90
2022-08-09T09:32:03.570Z,23.91
2022-08-09T09:36:42.253Z,24.05
2022-08-09T09:41:56.533Z,24.13
2022-08-09T09:47:07.793Z,24.28
2022-08-09T09:52:16.505Z,24.31
2022-08-09T09:58:01.711Z,24.28
2022-08-09T10:02:58.754Z,24.40
2022-08-09T10:08:25.906Z,24.35
2022-08-09T10:13:45.282Z,24.43
2022-08-09T10:18:54.489Z,24.50
2022-08-09T10:24:01.350Z,24.64
2022-08-09T10:29:20.967Z,24.74
2022-08-09T10:34:33.979Z,24.75
2022-08-09T10:39:40.811Z,24.75
2022-08-09T10:44:55.394Z,24.79
2022-08-09T10:50:06.989Z,24.83
2022-08-09T10:55:23.841Z,24.83
2022-08-09T11:00:41.670Z,24.87
2022-08-09T11:06:19.499Z,24.91
2022-08-09T11:11:23.138Z,24.89
2022-08-09T11:16:37.358Z,24.95
2022-08-09T11:22:16.689Z,25.02
2022-08-09T11:28:02.872Z,25.09
2022-08-09T11:32:55.228Z,25.12
2022-08-09T11:38:15.951Z,25.19
2022-08-09T11:43:39.862Z,25.20
2022-08-09T11:48:47.922Z,25.27
2022-08-09T11:54:13.680Z,25.34
2022-08-09T11:59:30.456Z,25.24
2022-08-09T12:04:38.124Z,25.17
2022-08-09T12:09:50.735Z,25.17
2022-08-09T12:15:07.813Z,25.19
2022-08-09T12:20:16.238Z,25.22
2022-08-09T12:25:36.089Z,25.20
2022-08-09T12:30:40.721Z,25.23
2022-08-09T12:35:43.782Z,25.27
2022-08-09T12:40:51.863Z,25.34
2022-08-09T12:45:59.767Z,25.38
2022-08-09T12:51:04.454Z,25.35
2022-08-09T12:56:39.277Z,25.34
2022-08-09T13:01:34.466Z,25.36
2022-08-09T13:06:42.062Z,25.31
2022-08-09T13:11:47.573Z,25.33
2022-08-09T13:16:52.034Z,25.41
2022-08-09T13:22:37.826Z,25.49
2022-08-09T13:27:40.128Z,25.60
2022-08-09T13:32:58.170Z,25.63
2022-08-09T13:38:02.492Z,25.71
2022-08-09T13:43:09.562Z,25.72
2022-08-09T13:48:14.711Z,25.74
2022-08-09T13:53:18.379Z,25.75
2022-08-09T13:58:22.749Z,25.76
2022-08-09T14:04:01.936Z,25.76
2022-08-09T14:08:50.463Z,25.76
2022-08-09T14:14:22.319Z,25.78
2022-08-09T14:19:17.613Z,25.79
2022-08-09T14:24:31.952Z,25.79
2022-08-09T14:30:35.159Z,25.88
2022-08-09T14:34:59.740Z,25.89
2022-08-09T14:40:02.556Z,25.98
2022-08-09T14:46:58.475Z,26.06
2022-08-09T14:50:34.218Z,25.95
2022-08-09T14:55:37.224Z,25.93
2022-08-09T15:00:48.558Z,25.99
2022-08-09T15:05:59.795Z,25.98
2022-08-09T15:11:07.397Z,25.97
2022-08-09T15:16:12.230Z,25.95
2022-08-09T15:21:55.588Z,25.97
2022-08-09T15:26:37.767Z,25.99
2022-08-09T15:31:50.737Z,26.02
2022-08-09T15:36:58.218Z,26.06
2022-08-09T15:42:01.224Z,26.06
2022-08-09T15:47:05.477Z,26.11
2022-08-09T15:52:09.091Z,26.15
2022-08-09T15:57:14.603Z,26.17
2022-08-09T16:02:37.644Z,26.26
2022-08-09T16:07:46.037Z,26.38
2022-08-09T16:12:53.493Z,26.35
2022-08-09T16:17:58.737Z,26.40
2022-08-09T16:23:01.601Z,26.38
2022-08-09T16:28:05.279Z,26.41
2022-08-09T16:33:09.398Z,26.41
2022-08-09T16:38:12.185Z,26.42
2022-08-09T16:43:14.983Z,26.48
2022-08-09T16:48:43.283Z,26.53
2022-08-09T16:54:22.401Z,26.55
2022-08-09T16:59:10.574Z,26.57
2022-08-09T17:04:26.058Z,26.60
2022-08-09T17:09:45.980Z,26.60
2022-08-09T17:14:54.876Z,26.65
2022-08-09T17:20:33.111Z,26.67
2022-08-09T17:25:25.189Z,26.70
2022-08-09T17:30:33.953Z,26.72
2022-08-09T17:35:41.110Z,26.75
2022-08-09T17:40:47.491Z,26.97
2022-08-09T17:46:03.863Z,26.96
2022-08-09T17:51:18.379Z,26.95
2022-08-09T17:56:27.692Z,26.93
2022-08-09T18:02:06.823Z,26.95
2022-08-09T18:06:55.832Z,26.91
2022-08-09T18:12:14.802Z,26.92
2022-08-09T18:17:27.455Z,26.95
2022-08-09T18:22:51.244Z,26.92
2022-08-09T18:28:04.389Z,26.93
2022-08-09T18:33:13.430Z,26.88
2022-08-09T18:38:19.819Z,26.89
2022-08-09T18:43:22.700Z,26.90
2022-08-09T18:48:30.266Z,26.91
2022-08-09T18:53:59.714Z,26.71
2022-08-09T18:59:01.099Z,26.54
2022-08-09T19:04:08.410Z,26.45
2022-08-09T19:09:33.995Z,26.38
2022-08-09T19:14:36.742Z,26.31
2022-08-09T19:19:48.675Z,26.42
2022-08-09T19:25:09.779Z,26.46
2022-08-09T19:30:22.690Z,26.52
2022-08-09T19:35:58.143Z,26.52
2022-08-09T19:40:57.556Z,26.53
2022-08-09T19:46:04.188Z,26.53
2022-08-09T19:51:07.510Z,26.51
2022-08-09T19:56:15.626Z,26.47
2022-08-09T20:01:18.689Z,26.49
2022-08-09T20:06:29.862Z,26.51
2022-08-09T20:11:45.143Z,26.52
2022-08-09T20:16:55.160Z,26.46
2022-08-09T20:22:00.602Z,26.39
2022-08-09T20:27:08.265Z,26.38
2022-08-09T20:32:30.749Z,26.36
2022-08-09T20:37:37.304Z,26.29
2022-08-09T20:43:12.140Z,26.23
2022-08-09T20:48:22.131Z,26.22
2022-08-09T20:53:36.347Z,26.10
2022-08-09T20:58:43.366Z,26.08
2022-08-09T21:04:08.172Z,26.07
2022-08-09T21:09:11.836Z,26.01
2022-08-09T21:14:18.325Z,25.97
2022-08-09T21:20:16.104Z,25.98
2022-08-09T21:24:58.867Z,25.91
2022-08-09T21:30:03.434Z,25.92
2022-08-09T21:35:06.960Z,25.89
2022-08-09T21:40:10.751Z,26.15
2022-08-09T21:45:17.602Z,26.30
2022-08-09T21:50:36.116Z,26.39
2022-08-09T21:55:46.407Z,26.47
2022-08-09T22:00:50.723Z,26.48
2022-08-09T22:05:55.500Z,26.49
2022-08-09T22:12:05.394Z,26.51
2022-08-09T22:16:24.915Z,26.44
2022-08-09T22:21:49.753Z,26.48
2022-08-09T22:26:52.292Z,26.33
2022-08-09T22:31:57.879Z,26.36
2022-08-09T22:37:00.965Z,26.51
2022-08-09T22:42:16.113Z,26.49
2022-08-09T22:48:11.990Z,26.44
2022-08-09T22:52:49.143Z,26.42
2022-08-09T22:57:59.729Z,26.39
2022-08-09T23:03:04.697Z,26.38
2022-08-09T23:08:33.382Z,26.34
2022-08-09T23:13:37.061Z,26.28
2022-08-09T23:18:41.178Z,26.22
2022-08-09T23:23:43.979Z,26.22
2022-08-09T23:29:07.149Z,26.18
2022-08-09T23:34:11.313Z,26.13
2022-08-09T23:39:14.086Z,26.11
2022-08-09T23:44:16.909Z,26.07
2022-08-09T23:49:24.711Z,26.07
2022-08-09T23:54:27.785Z,26.07
2022-08-09T23:59:51.254Z,26.05
